Milligan, Nebraska
Current Conditions -  °F | °C
As of 4:15 PM on Friday 24 Oct 2014 (Local Time) from KHJH Reporting Station
Clear Clear  
Wind Chill: 26°   Ceiling: Unl
Heat Index: 26°   Visibility: 10mi
Dew Point: 11°   Wind: 9mph
Humidity: 39%   Direction: 250°WSW
Pressure: 29.92"   Gusts: NA
Location:  40.5°N, 97.39°W
Report Text: KHJH 242115Z AUTO 25008KT 10SM CLR 27/11 A2992 RMK AO2 T02650113
Loading
Personal Weather Stations






























Interactive Weather Map
Tropical Storm Tracking
New forecast layout! Learn more

10-Day Weather Forecast

Advertisements
Track Severe Weather on mobile